CheckWX is a tool to help pilots better visualize weather data.  It is not intended as a substitute for an official pre-flight weather briefing.

00:58:05 UTC

ENNA METAR
Banak Airport
Lakselv, Norway
Current

38 mins ago

ENNA 240020Z AUTO 21008KT 9999 NCD M02/M07 Q0976 RMK WIND 1800FT 18011KT
Observed
Mar-24 @ 00:20 UTC
Wind
  • 210° at 8 KTS
Visibility
10,000+ meters
Flight Rules
VFR
Cloud Levels
  • Clear skies
Temperature
-2°C / 28°F
Dewpoint
-7°C / 19°F
Humidity
69%
Altimeter
28.82" Hg
Pressure
975.92 hPa
Previous

1 hour ago

ENNA 232350Z AUTO 21011KT 9999 NCD M02/M07 Q0976 RMK WIND 1800FT 19017KT
Observed
Mar-23 @ 23:50 UTC
Wind
  • 210° at 11 KTS
Visibility
10,000+ meters
Flight Rules
VFR
Cloud Levels
  • Clear skies
Temperature
-2°C / 28°F
Dewpoint
-7°C / 19°F
Humidity
69%
Altimeter
28.82" Hg
Pressure
975.92 hPa
Previous

2 hours ago

ENNA 232320Z AUTO 21010KT 9999 NCD M02/M07 Q0976 RMK WIND 1800FT 18016KT
Observed
Mar-23 @ 23:20 UTC
Wind
  • 210° at 10 KTS
Visibility
10,000+ meters
Flight Rules
VFR
Cloud Levels
  • Clear skies
Temperature
-2°C / 28°F
Dewpoint
-7°C / 19°F
Humidity
69%
Altimeter
28.82" Hg
Pressure
975.92 hPa